YCM weather

Niagara District Airport
St Catharines, Ontario, Canada

Public forecast

Using degrees Celsius for public forecast. Weather courtesy of forecast.io.

METAR (pilot weather report)

Retrieved 2019/03/20 23:00 UTC (38 minutes ago):

CYSN 202300Z 03005KT 15SM BKN095 OVC250 08/M03 A3007 RMK AC6CI2 SLP186

TAF (pilot weather forecast)

Retrieved 2019/03/20 20:00 UTC (4 hours ago):

TAF CYSN 201939Z 2020/2101 21012G22KT P6SM FEW030 BKN120 FM202100 21012G22KT P6SM SCT050 BKN120 BECMG 2021/2023 19010KT FM210000 VRB03KT P6SM OVC060 RMK NXT FCST WILL BE ISSUED AT 211245Z